NCAR-RAP Real-Time Weather Data

Output produced by METARs form (08 May 2021  02:02 UTC)
found at http://weather.rap.ucar.edu/surface/
 
KAUG 080053Z AUTO 19004KT 10SM CLR 08/M01 A2997 RMK AO2 SLP150 T00831006
KAUG 072353Z AUTO VRB06KT 10SM CLR 10/M01 A2996 RMK AO2 SLP146 60000 T01001006 10161 20100 53009
KAUG 072253Z AUTO 19004KT 10SM CLR 12/M01 A2994 RMK AO2 SLP140 T01171006
KAUG 072153Z AUTO 16010KT 10SM CLR 14/M02 A2993 RMK AO2 SLP139 T01391017
KAUG 072053Z AUTO 33005KT 10SM CLR 16/M06 A2993 RMK AO2 RAB10E39 SLP137 P0000 60000 T01611056 56009
KAUG 071953Z AUTO 00000KT 10SM CLR 16/M06 A2993 RMK AO2 SLP138 T01561061
KAUG 071853Z AUTO VRB04KT 10SM CLR 14/M07 A2994 RMK AO2 SLP141 T01441067
KAUG 071753Z AUTO 08006KT 10SM CLR 15/M06 A2996 RMK AO2 SLP146 T01501056 10150 20078 56018
KAUG 071653Z AUTO 04007KT 10SM CLR 14/M05 A2997 RMK AO2 SLP151 T01441050
KAUG 071553Z AUTO 00000KT 10SM CLR 13/M06 A2999 RMK AO2 SLP157 T01331056
KAUG 071453Z AUTO 05005G15KT 10SM CLR 12/M06 A3001 RMK AO2 SLP164 T01171056 56000
KAUG 071353Z AUTO 35008KT 10SM CLR 11/M06 A3001 RMK AO2 SLP163 T01111056
KAUG 071253Z AUTO 02010KT 10SM CLR 10/M05 A3001 RMK AO2 SLP163 T01001050
KAUG 071153Z AUTO 33006KT 10SM CLR 08/M02 A3001 RMK AO2 SLP165 T00781017 10078 20022 51011
KAUG 071053Z AUTO 33004KT 10SM CLR 06/M01 A3000 RMK AO2 SLP162 T00561011